createdAt,value
2017-12-08T00:00:14.691Z,13.83
2017-12-08T00:02:42.422Z,12.83
2017-12-08T00:05:09.736Z,13.83
2017-12-08T00:07:37.367Z,13.30
2017-12-08T00:10:05.052Z,12.77
2017-12-08T00:12:32.697Z,13.20
2017-12-08T00:15:00.101Z,14.97
2017-12-08T00:17:27.416Z,13.77
2017-12-08T00:19:55.085Z,14.13
2017-12-08T00:22:22.697Z,14.23
2017-12-08T00:24:50.133Z,15.10
2017-12-08T00:27:17.453Z,14.30
2017-12-08T00:29:44.789Z,13.83
2017-12-08T00:32:12.450Z,14.10
2017-12-08T00:34:39.848Z,14.10
2017-12-08T00:37:07.456Z,14.33
2017-12-08T00:39:34.824Z,15.87
2017-12-08T00:42:02.152Z,15.07
2017-12-08T00:44:29.696Z,13.70
2017-12-08T00:46:57.029Z,15.17
2017-12-08T00:49:24.767Z,14.40
2017-12-08T00:51:52.083Z,13.97
2017-12-08T00:54:19.776Z,14.77
2017-12-08T00:56:47.114Z,15.17
2017-12-08T00:59:14.490Z,15.37
2017-12-08T01:01:41.830Z,15.67
2017-12-08T01:04:09.550Z,14.50
2017-12-08T01:06:36.872Z,13.10
2017-12-08T01:09:04.501Z,13.80
2017-12-08T01:11:31.928Z,14.03
2017-12-08T01:13:59.235Z,13.10
2017-12-08T01:16:26.566Z,12.53
2017-12-08T01:18:53.956Z,12.63
2017-12-08T01:21:21.589Z,14.30
2017-12-08T01:23:49.268Z,14.43
2017-12-08T01:26:17.016Z,13.57
2017-12-08T01:28:44.910Z,13.50
2017-12-08T01:31:12.248Z,13.17
2017-12-08T01:33:39.571Z,12.90
2017-12-08T01:38:43.240Z,12.70
2017-12-08T01:41:10.859Z,11.23
2017-12-08T01:43:38.195Z,12.97
2017-12-08T01:46:05.880Z,11.17
2017-12-08T01:48:33.251Z,11.13
2017-12-08T01:51:00.551Z,10.70
2017-12-08T01:53:27.875Z,10.53
2017-12-08T01:55:55.519Z,8.87
2017-12-08T01:58:22.837Z,10.50
2017-12-08T02:00:50.537Z,11.07
2017-12-08T02:03:17.882Z,9.60
2017-12-08T02:05:45.200Z,10.17
2017-12-08T02:08:12.510Z,9.93
2017-12-08T02:10:40.155Z,10.97
2017-12-08T02:13:07.536Z,9.37
2017-12-08T02:15:35.193Z,10.70
2017-12-08T02:18:02.860Z,11.43
2017-12-08T02:20:30.508Z,9.43
2017-12-08T02:22:57.812Z,10.13
2017-12-08T02:25:25.524Z,10.10
2017-12-08T02:27:53.163Z,10.90
2017-12-08T02:30:20.481Z,10.50
2017-12-08T02:32:47.788Z,9.20
2017-12-08T02:35:15.104Z,10.50
2017-12-08T02:37:42.491Z,9.40
2017-12-08T02:40:09.812Z,10.47
2017-12-08T02:42:37.172Z,10.23
2017-12-08T02:45:04.480Z,10.17
2017-12-08T02:47:31.822Z,9.57
2017-12-08T02:49:59.208Z,9.93
2017-12-08T02:52:26.547Z,10.73
2017-12-08T02:54:53.893Z,8.00
2017-12-08T02:57:21.233Z,8.90
2017-12-08T02:59:48.742Z,9.40
2017-12-08T03:02:16.260Z,9.40
2017-12-08T03:04:44.455Z,9.50
2017-12-08T03:07:11.849Z,9.30
2017-12-08T03:09:39.264Z,9.97
2017-12-08T03:12:06.698Z,8.90
2017-12-08T03:14:34.177Z,9.67
2017-12-08T03:17:01.541Z,9.60
2017-12-08T03:19:28.851Z,8.40
2017-12-08T03:21:56.274Z,7.20
2017-12-08T03:24:23.583Z,8.87
2017-12-08T03:26:51.240Z,7.63
2017-12-08T03:29:22.823Z,8.07
2017-12-08T03:31:50.318Z,8.57
2017-12-08T03:34:18.060Z,8.87
2017-12-08T03:36:45.619Z,8.93
2017-12-08T03:39:12.971Z,7.80
2017-12-08T03:41:40.653Z,8.73
2017-12-08T03:44:08.338Z,7.33
2017-12-08T03:46:35.653Z,8.13
2017-12-08T03:49:03.025Z,8.00
2017-12-08T03:51:30.881Z,8.20
2017-12-08T03:53:58.664Z,7.50
2017-12-08T03:56:26.081Z,7.47
2017-12-08T03:58:53.392Z,8.20
2017-12-08T04:01:21.086Z,8.60
2017-12-08T04:03:48.603Z,7.43
2017-12-08T04:06:15.946Z,7.80
2017-12-08T04:08:43.623Z,7.90
2017-12-08T04:11:10.948Z,7.13
2017-12-08T04:13:38.543Z,7.83
2017-12-08T04:16:06.380Z,7.63
2017-12-08T04:18:33.800Z,6.33
2017-12-08T04:21:01.201Z,6.50
2017-12-08T04:23:28.592Z,6.70
2017-12-08T04:25:56.344Z,6.70
2017-12-08T04:28:24.185Z,6.60
2017-12-08T04:30:52.055Z,6.70
2017-12-08T04:33:20.017Z,6.50
2017-12-08T04:35:47.505Z,7.13
2017-12-08T04:38:15.153Z,6.90
2017-12-08T04:40:42.465Z,6.90
2017-12-08T04:43:09.784Z,5.93
2017-12-08T04:45:37.396Z,6.20
2017-12-08T04:48:05.071Z,6.37
2017-12-08T04:50:32.375Z,6.30
2017-12-08T04:52:59.684Z,5.77
2017-12-08T04:55:27.010Z,6.10
2017-12-08T04:57:54.308Z,6.13
2017-12-08T05:00:21.932Z,5.70
2017-12-08T05:02:49.616Z,5.80
2017-12-08T05:05:16.930Z,6.63
2017-12-08T05:07:44.235Z,5.83
2017-12-08T05:10:11.880Z,5.80
2017-12-08T05:12:39.243Z,5.50
2017-12-08T05:15:06.543Z,5.80
2017-12-08T05:17:33.847Z,5.80
2017-12-08T05:20:01.164Z,6.40
2017-12-08T05:22:28.615Z,5.97
2017-12-08T05:24:56.092Z,5.90
2017-12-08T05:27:23.760Z,5.73
2017-12-08T05:29:51.445Z,6.03
2017-12-08T05:32:18.754Z,5.63
2017-12-08T05:34:46.456Z,6.10
2017-12-08T05:37:13.770Z,4.73
2017-12-08T05:39:41.132Z,5.07
2017-12-08T05:42:08.609Z,4.73
2017-12-08T05:44:36.304Z,5.37
2017-12-08T05:47:03.614Z,5.07
2017-12-08T05:49:31.305Z,5.27
2017-12-08T05:51:58.598Z,4.83
2017-12-08T05:54:25.897Z,6.10
2017-12-08T05:56:53.221Z,5.30
2017-12-08T05:59:20.898Z,5.30
2017-12-08T06:01:48.578Z,5.67
2017-12-08T06:04:15.880Z,5.90
2017-12-08T06:06:43.198Z,5.60
2017-12-08T06:09:10.840Z,5.87
2017-12-08T06:11:38.525Z,5.80
2017-12-08T06:14:06.158Z,4.87
2017-12-08T06:16:33.484Z,6.23
2017-12-08T06:19:00.797Z,5.90
2017-12-08T06:21:28.448Z,5.40
2017-12-08T06:23:55.748Z,4.57
2017-12-08T06:26:23.087Z,5.57
2017-12-08T06:28:50.709Z,5.37
2017-12-08T06:31:18.025Z,5.60
2017-12-08T06:33:45.343Z,5.80
2017-12-08T06:36:12.966Z,4.80
2017-12-08T06:38:40.515Z,5.60
2017-12-08T06:41:08.180Z,5.33
2017-12-08T06:43:35.952Z,5.80
2017-12-08T06:46:03.387Z,5.20
2017-12-08T06:48:30.988Z,5.07
2017-12-08T06:50:58.644Z,5.70
2017-12-08T06:53:25.991Z,5.90
2017-12-08T06:55:53.290Z,5.27
2017-12-08T06:58:20.917Z,5.63
2017-12-08T07:00:48.248Z,6.77
2017-12-08T07:03:15.772Z,5.33
2017-12-08T07:05:43.099Z,5.23
2017-12-08T07:08:10.920Z,6.37
2017-12-08T07:10:38.805Z,5.20
2017-12-08T07:13:06.114Z,4.60
2017-12-08T07:15:33.430Z,5.40
2017-12-08T07:18:01.252Z,5.30
2017-12-08T07:20:28.722Z,5.90
2017-12-08T07:22:56.039Z,5.40
2017-12-08T07:25:23.745Z,5.13
2017-12-08T07:27:51.066Z,5.17
2017-12-08T07:30:18.393Z,5.37
2017-12-08T07:32:45.852Z,5.40
2017-12-08T07:35:13.181Z,5.20
2017-12-08T07:37:40.516Z,4.90
2017-12-08T07:40:07.900Z,6.00
2017-12-08T07:42:35.731Z,5.20
2017-12-08T07:45:03.027Z,5.00
2017-12-08T07:47:30.382Z,5.30
2017-12-08T07:49:58.205Z,5.50
2017-12-08T07:52:25.524Z,5.17
2017-12-08T07:54:52.827Z,5.13
2017-12-08T07:57:20.140Z,4.97
2017-12-08T07:59:48.065Z,6.10
2017-12-08T08:02:15.920Z,5.17
2017-12-08T08:04:43.316Z,5.20
2017-12-08T08:07:10.643Z,5.80
2017-12-08T08:09:38.480Z,6.80
2017-12-08T08:12:06.353Z,6.83
2017-12-08T08:14:33.740Z,7.00
2017-12-08T08:17:01.607Z,5.90
2017-12-08T08:19:29.480Z,6.70
2017-12-08T08:21:57.304Z,5.70
2017-12-08T08:24:24.641Z,5.10
2017-12-08T08:26:51.945Z,5.80
2017-12-08T08:29:19.832Z,6.10
2017-12-08T08:31:47.148Z,5.50
2017-12-08T08:34:14.800Z,5.70
2017-12-08T08:36:42.109Z,5.80
2017-12-08T08:39:09.420Z,6.73
2017-12-08T08:41:37.073Z,5.03
2017-12-08T08:44:04.389Z,5.80
2017-12-08T08:46:31.781Z,5.17
2017-12-08T08:48:59.092Z,5.47
2017-12-08T08:51:26.777Z,4.70
2017-12-08T08:53:54.460Z,5.40
2017-12-08T08:56:21.756Z,5.37
2017-12-08T08:58:49.069Z,4.97
2017-12-08T09:01:16.390Z,4.90
2017-12-08T09:03:44.073Z,4.97
2017-12-08T09:06:11.541Z,4.80
2017-12-08T09:08:38.835Z,4.40
2017-12-08T09:11:06.170Z,4.43
2017-12-08T09:13:33.788Z,4.60
2017-12-08T09:16:01.190Z,4.43
2017-12-08T09:18:29.564Z,4.50
2017-12-08T09:20:57.262Z,5.70
2017-12-08T09:23:24.555Z,4.83
2017-12-08T09:25:51.878Z,5.17
2017-12-08T09:28:19.359Z,4.90
2017-12-08T09:30:47.024Z,4.90
2017-12-08T09:33:15.539Z,4.80
2017-12-08T09:35:43.168Z,6.00
2017-12-08T09:38:10.468Z,4.57
2017-12-08T09:40:38.076Z,4.87
2017-12-08T09:43:05.399Z,4.63
2017-12-08T09:45:33.076Z,5.07
2017-12-08T09:48:00.492Z,5.40
2017-12-08T09:50:28.106Z,4.67
2017-12-08T09:52:55.468Z,5.23
2017-12-08T09:55:22.772Z,5.03
2017-12-08T09:57:50.111Z,5.53
2017-12-08T10:00:17.727Z,5.00
2017-12-08T10:02:45.469Z,5.20
2017-12-08T10:05:12.769Z,5.83
2017-12-08T10:07:40.513Z,4.50
2017-12-08T10:10:08.180Z,5.30
2017-12-08T10:12:35.495Z,4.00
2017-12-08T10:15:03.177Z,4.93
2017-12-08T10:17:30.857Z,4.10
2017-12-08T10:19:58.177Z,4.67
2017-12-08T10:22:25.604Z,2.97
2017-12-08T10:24:53.062Z,3.60
2017-12-08T10:27:20.668Z,4.00
2017-12-08T10:29:48.368Z,4.00
2017-12-08T10:32:16.010Z,3.33
2017-12-08T10:34:43.687Z,3.20
2017-12-08T10:37:11.392Z,3.50
2017-12-08T10:39:38.704Z,3.30
2017-12-08T10:42:06.340Z,3.83
2017-12-08T10:44:34.027Z,3.50
2017-12-08T10:47:01.307Z,3.57
2017-12-08T10:49:28.833Z,2.70
2017-12-08T10:51:56.616Z,2.57
2017-12-08T10:54:24.095Z,3.60
2017-12-08T10:56:51.599Z,3.20
2017-12-08T10:59:18.919Z,2.80
2017-12-08T11:01:46.893Z,3.30
2017-12-08T11:04:14.422Z,3.10
2017-12-08T11:06:42.295Z,2.30
2017-12-08T11:09:09.997Z,2.97
2017-12-08T11:11:37.703Z,2.73
2017-12-08T11:14:05.348Z,2.80
2017-12-08T11:16:32.673Z,2.70
2017-12-08T11:18:59.983Z,3.30
2017-12-08T11:21:27.607Z,2.93
2017-12-08T11:23:54.913Z,3.40
2017-12-08T11:26:22.283Z,3.10
2017-12-08T11:28:49.588Z,3.57
2017-12-08T11:31:17.250Z,3.00
2017-12-08T11:33:44.631Z,3.40
2017-12-08T11:36:12.252Z,3.83
2017-12-08T11:38:39.703Z,3.37
2017-12-08T11:41:06.988Z,2.90
2017-12-08T11:43:34.330Z,3.50
2017-12-08T11:46:01.955Z,2.80
2017-12-08T11:48:29.491Z,2.83
2017-12-08T11:50:57.292Z,3.00
2017-12-08T11:53:24.673Z,3.00
2017-12-08T11:55:52.325Z,2.57
2017-12-08T11:58:19.952Z,3.47
2017-12-08T12:00:47.261Z,3.43
2017-12-08T12:03:14.873Z,2.70
2017-12-08T12:05:42.541Z,3.40
2017-12-08T12:08:09.844Z,2.97
2017-12-08T12:10:37.186Z,2.63
2017-12-08T12:13:04.796Z,3.40
2017-12-08T12:15:32.123Z,2.77
2017-12-08T12:17:59.820Z,2.80
2017-12-08T12:20:27.508Z,3.10
2017-12-08T12:22:55.210Z,2.40
2017-12-08T12:25:22.510Z,2.80
2017-12-08T12:27:49.805Z,2.43
2017-12-08T12:30:17.474Z,2.47
2017-12-08T12:32:44.830Z,3.10
2017-12-08T12:35:12.093Z,3.07
2017-12-08T12:37:39.802Z,2.63
2017-12-08T12:40:07.113Z,2.87
2017-12-08T12:42:34.818Z,2.83
2017-12-08T12:45:02.121Z,3.23
2017-12-08T12:47:29.458Z,3.23
2017-12-08T12:49:57.080Z,2.73
2017-12-08T12:52:24.398Z,2.60
2017-12-08T12:54:52.105Z,3.13
2017-12-08T12:57:19.456Z,2.70
2017-12-08T12:59:46.743Z,2.73
2017-12-08T13:02:14.180Z,3.30
2017-12-08T13:04:41.916Z,3.30
2017-12-08T13:07:09.232Z,2.43
2017-12-08T13:09:36.566Z,3.03
2017-12-08T13:12:04.181Z,2.97
2017-12-08T13:14:31.900Z,3.20
2017-12-08T13:16:59.228Z,3.70
2017-12-08T13:19:26.881Z,3.43
2017-12-08T13:21:54.513Z,3.33
2017-12-08T13:24:21.836Z,2.90
2017-12-08T13:26:49.144Z,3.43
2017-12-08T13:29:16.461Z,3.20
2017-12-08T13:31:44.133Z,3.37
2017-12-08T13:34:11.816Z,3.70
2017-12-08T13:36:39.120Z,2.97
2017-12-08T13:39:06.437Z,3.20
2017-12-08T13:41:34.058Z,3.17
2017-12-08T13:44:01.374Z,3.53
2017-12-08T13:46:28.693Z,2.90
2017-12-08T13:48:56.393Z,3.67
2017-12-08T13:51:24.001Z,3.40
2017-12-08T13:53:57.279Z,3.37
2017-12-08T13:56:30.556Z,3.10
2017-12-08T13:58:57.923Z,3.43
2017-12-08T14:01:25.606Z,2.80
2017-12-08T14:03:53.305Z,3.57
2017-12-08T14:06:21.042Z,2.60
2017-12-08T14:08:48.362Z,2.80
2017-12-08T14:11:15.717Z,2.77
2017-12-08T14:13:43.198Z,2.80
2017-12-08T14:16:10.649Z,3.00
2017-12-08T14:18:37.941Z,2.90
2017-12-08T14:21:05.572Z,3.43
2017-12-08T14:23:32.957Z,3.37
2017-12-08T14:26:00.710Z,3.30
2017-12-08T14:28:28.009Z,3.33
2017-12-08T14:30:55.346Z,2.97
2017-12-08T14:33:22.949Z,3.10
2017-12-08T14:35:50.629Z,2.97
2017-12-08T14:38:17.957Z,3.23
2017-12-08T14:40:45.677Z,3.13
2017-12-08T14:43:12.985Z,3.33
2017-12-08T14:45:40.279Z,3.37
2017-12-08T14:48:07.935Z,3.40
2017-12-08T14:50:35.552Z,3.10
2017-12-08T14:53:03.410Z,3.47
2017-12-08T14:55:31.184Z,3.10
2017-12-08T14:57:58.891Z,3.73
2017-12-08T15:00:26.525Z,4.00
2017-12-08T15:02:53.888Z,3.77
2017-12-08T15:05:21.208Z,4.10
2017-12-08T15:07:48.917Z,3.63
2017-12-08T15:10:16.661Z,4.37
2017-12-08T15:12:44.058Z,4.00
2017-12-08T15:15:11.408Z,3.87
2017-12-08T15:17:39.084Z,3.43
2017-12-08T15:20:06.389Z,4.63
2017-12-08T15:22:33.724Z,4.37
2017-12-08T15:25:01.420Z,4.90
2017-12-08T15:27:29.163Z,4.60
2017-12-08T15:29:56.538Z,4.20
2017-12-08T15:32:23.835Z,5.40
2017-12-08T15:34:51.545Z,4.47
2017-12-08T15:37:18.858Z,4.67
2017-12-08T15:39:46.264Z,3.90
2017-12-08T15:42:13.908Z,4.67
2017-12-08T15:44:41.253Z,3.97
2017-12-08T15:47:08.755Z,3.70
2017-12-08T15:49:36.573Z,3.57
2017-12-08T15:52:04.176Z,3.70
2017-12-08T15:54:31.789Z,4.20
2017-12-08T15:56:59.103Z,5.43
2017-12-08T15:59:26.489Z,4.63
2017-12-08T16:01:54.156Z,3.50
2017-12-08T16:04:21.893Z,4.87
2017-12-08T16:06:49.208Z,3.60
2017-12-08T16:09:16.514Z,2.97
2017-12-08T16:11:44.330Z,3.20
2017-12-08T16:14:11.625Z,3.00
2017-12-08T16:16:38.955Z,3.10
2017-12-08T16:19:06.594Z,3.63
2017-12-08T16:21:33.906Z,3.60
2017-12-08T16:24:01.193Z,3.10
2017-12-08T16:26:28.512Z,3.80
2017-12-08T16:28:56.189Z,4.63
2017-12-08T16:31:23.869Z,3.70
2017-12-08T16:33:51.188Z,5.10
2017-12-08T16:36:18.875Z,5.20
2017-12-08T16:38:46.196Z,5.03
2017-12-08T16:41:13.489Z,4.20
2017-12-08T16:43:40.819Z,3.97
2017-12-08T16:46:08.507Z,4.80
2017-12-08T16:48:35.842Z,3.40
2017-12-08T16:51:03.131Z,3.27
2017-12-08T16:53:30.821Z,3.07
2017-12-08T16:55:58.423Z,4.00
2017-12-08T16:58:26.297Z,3.93
2017-12-08T17:00:53.948Z,5.27
2017-12-08T17:03:21.628Z,3.97
2017-12-08T17:05:48.931Z,4.00
2017-12-08T17:08:16.255Z,3.40
2017-12-08T17:10:43.584Z,4.20
2017-12-08T17:13:11.312Z,4.13
2017-12-08T17:15:39.065Z,4.10
2017-12-08T17:18:06.368Z,4.43
2017-12-08T17:20:33.692Z,4.77
2017-12-08T17:23:01.376Z,3.87
2017-12-08T17:25:29.164Z,4.57
2017-12-08T17:27:56.793Z,4.40
2017-12-08T17:30:24.483Z,4.90
2017-12-08T17:32:51.818Z,4.10
2017-12-08T17:35:19.477Z,4.33
2017-12-08T17:37:47.163Z,4.77
2017-12-08T17:40:14.501Z,4.63
2017-12-08T17:42:42.211Z,3.87
2017-12-08T17:45:09.523Z,4.57
2017-12-08T17:47:36.817Z,4.67
2017-12-08T17:50:04.186Z,4.90
2017-12-08T17:52:31.513Z,4.87
2017-12-08T17:54:59.225Z,4.93
2017-12-08T17:57:26.916Z,5.30
2017-12-08T17:59:54.585Z,6.17
2017-12-08T18:02:22.313Z,4.50
2017-12-08T18:04:49.982Z,4.80
2017-12-08T18:07:17.688Z,4.90
2017-12-08T18:09:45.116Z,4.83
2017-12-08T18:12:12.448Z,5.90
2017-12-08T18:14:39.821Z,5.70
2017-12-08T18:17:07.181Z,6.70
2017-12-08T18:19:34.475Z,7.10
2017-12-08T18:22:01.788Z,5.53
2017-12-08T18:24:29.132Z,7.83
2017-12-08T18:26:56.466Z,5.50
2017-12-08T18:29:24.188Z,7.27
2017-12-08T18:31:51.808Z,6.87
2017-12-08T18:34:19.127Z,6.00
2017-12-08T18:36:46.807Z,7.73
2017-12-08T18:39:14.123Z,5.70
2017-12-08T18:41:41.545Z,6.47
2017-12-08T18:44:08.847Z,4.50
2017-12-08T18:46:36.452Z,5.10
2017-12-08T18:49:03.760Z,6.63
2017-12-08T18:51:31.084Z,5.40
2017-12-08T18:53:58.717Z,5.30
2017-12-08T18:56:26.032Z,5.70
2017-12-08T18:58:53.348Z,5.13
2017-12-08T19:01:20.655Z,5.70
2017-12-08T19:03:47.975Z,5.80
2017-12-08T19:06:15.679Z,4.80
2017-12-08T19:08:43.372Z,5.70
2017-12-08T19:11:11.009Z,4.33
2017-12-08T19:13:38.772Z,5.73
2017-12-08T19:16:06.450Z,6.80
2017-12-08T19:18:33.750Z,5.03
2017-12-08T19:21:01.072Z,6.00
2017-12-08T19:23:28.702Z,6.50
2017-12-08T19:25:56.096Z,6.73
2017-12-08T19:28:23.727Z,6.53
2017-12-08T19:30:51.027Z,6.30
2017-12-08T19:33:18.341Z,5.87
2017-12-08T19:35:45.999Z,5.30
2017-12-08T19:38:13.316Z,6.30
2017-12-08T19:40:40.750Z,6.63
2017-12-08T19:43:08.400Z,6.20
2017-12-08T19:45:36.017Z,7.10
2017-12-08T19:48:03.683Z,6.87
2017-12-08T19:50:31.137Z,8.10
2017-12-08T19:52:58.797Z,7.60
2017-12-08T19:55:26.116Z,9.37
2017-12-08T19:57:53.409Z,8.43
2017-12-08T20:00:21.272Z,9.03
2017-12-08T20:02:48.594Z,9.00
2017-12-08T20:05:15.901Z,9.20
2017-12-08T20:07:43.230Z,9.13
2017-12-08T20:10:10.898Z,8.63
2017-12-08T20:12:38.689Z,9.70
2017-12-08T20:15:06.330Z,7.50
2017-12-08T20:17:34.027Z,9.90
2017-12-08T20:20:01.766Z,8.03
2017-12-08T20:22:29.085Z,8.90
2017-12-08T20:24:56.783Z,9.63
2017-12-08T20:27:24.093Z,8.50
2017-12-08T20:29:51.413Z,9.13
2017-12-08T20:32:18.862Z,8.37
2017-12-08T20:34:46.202Z,7.60
2017-12-08T20:37:14.048Z,7.90
2017-12-08T20:39:41.920Z,6.80
2017-12-08T20:42:09.245Z,7.60
2017-12-08T20:44:36.551Z,6.73
2017-12-08T20:47:04.395Z,8.00
2017-12-08T20:49:31.771Z,7.17
2017-12-08T20:51:59.149Z,8.23
2017-12-08T20:54:26.929Z,8.17
2017-12-08T20:56:54.949Z,7.80
2017-12-08T20:59:22.807Z,7.60
2017-12-08T21:01:50.352Z,7.00
2017-12-08T21:04:17.772Z,7.87
2017-12-08T21:06:45.129Z,6.80
2017-12-08T21:09:12.470Z,6.17
2017-12-08T21:11:40.124Z,7.20
2017-12-08T21:14:07.964Z,7.73
2017-12-08T21:16:35.326Z,6.90
2017-12-08T21:19:02.655Z,7.70
2017-12-08T21:21:30.480Z,7.07
2017-12-08T21:23:57.934Z,6.53
2017-12-08T21:26:25.551Z,6.77
2017-12-08T21:28:53.244Z,6.57
2017-12-08T21:31:20.584Z,6.73
2017-12-08T21:33:48.232Z,6.80
2017-12-08T21:36:15.565Z,7.20
2017-12-08T21:38:43.025Z,6.70
2017-12-08T21:41:10.445Z,6.90
2017-12-08T21:43:38.119Z,6.37
2017-12-08T21:46:05.915Z,6.30
2017-12-08T21:48:33.258Z,5.73
2017-12-08T21:51:00.636Z,7.13
2017-12-08T21:53:28.007Z,7.20
2017-12-08T21:55:55.669Z,7.47
2017-12-08T21:58:23.374Z,7.70
2017-12-08T22:00:50.677Z,8.57
2017-12-08T22:03:17.985Z,7.67
2017-12-08T22:05:45.304Z,6.80
2017-12-08T22:08:12.969Z,7.00
2017-12-08T22:10:40.617Z,7.90
2017-12-08T22:13:08.252Z,6.97
2017-12-08T22:15:36.050Z,7.70
2017-12-08T22:18:03.697Z,7.10
2017-12-08T22:20:31.089Z,5.47
2017-12-08T22:22:58.511Z,6.67
2017-12-08T22:25:25.946Z,6.00
2017-12-08T22:27:53.663Z,6.53
2017-12-08T22:30:21.059Z,5.20
2017-12-08T22:32:48.784Z,5.57
2017-12-08T22:35:16.148Z,5.30
2017-12-08T22:37:43.448Z,6.40
2017-12-08T22:40:10.773Z,6.10
2017-12-08T22:42:38.156Z,6.23
2017-12-08T22:45:05.490Z,6.90
2017-12-08T22:47:32.966Z,6.03
2017-12-08T22:50:00.294Z,6.60
2017-12-08T22:52:27.680Z,6.87
2017-12-08T22:54:54.981Z,6.17
2017-12-08T22:57:22.324Z,6.60
2017-12-08T22:59:49.736Z,6.97
2017-12-08T23:02:17.063Z,7.63
2017-12-08T23:04:44.565Z,7.23
2017-12-08T23:07:12.236Z,7.30
2017-12-08T23:09:39.877Z,7.07
2017-12-08T23:12:07.184Z,7.50
2017-12-08T23:14:35.412Z,6.93
2017-12-08T23:17:03.054Z,7.20
2017-12-08T23:19:30.432Z,9.30
2017-12-08T23:21:58.187Z,7.83
2017-12-08T23:24:25.532Z,8.20
2017-12-08T23:26:52.889Z,8.23
2017-12-08T23:29:20.197Z,7.23
2017-12-08T23:31:47.525Z,7.73
2017-12-08T23:34:15.164Z,7.97
2017-12-08T23:36:42.934Z,8.63
2017-12-08T23:39:10.577Z,8.60
2017-12-08T23:41:38.268Z,7.40
2017-12-08T23:44:06.114Z,7.50
2017-12-08T23:46:33.413Z,6.97
2017-12-08T23:49:00.746Z,6.63
2017-12-08T23:51:28.381Z,7.70
2017-12-08T23:53:55.695Z,7.03
2017-12-08T23:56:23.413Z,8.50
2017-12-08T23:58:51.157Z,7.33
